Time;durP1;ratioP1;P1;durP2;ratioP2;P2;SDS_P1;SDS_P2;PMS_P1;PMS_P2;Temp;Humidity;BMP_temperature;BMP_pressure;BME280_temperature;BME280_humidity;BME280_pressure;Samples;Min_cycle;Max_cycle;Signal;HPM_P1;HPM_P2
2021/04/24 00:00:36;;;;;;;20.43;15.07;;;;;;;;;;4403396;32;20221;-53
2021/04/24 00:03:02;;;;;;;31.77;11.67;;;;;;;;;;4403612;32;20225;-53
2021/04/24 00:05:37;;;;;;;16.13;9.43;;;;;;;;;;4403168;32;20201;-62
2021/04/24 00:08:05;;;;;;;23.80;10.23;;;;;;;;;;4403297;32;20534;-63
2021/04/24 00:10:33;;;;;;;12.30;8.63;;;;;;;;;;4403573;32;20625;-62
2021/04/24 00:13:00;;;;;;;16.87;10.10;;;;;;;;;;4403401;32;20276;-62
2021/04/24 00:15:26;;;;;;;16.33;9.07;;;;;;;;;;4403725;32;20235;-62
2021/04/24 00:17:52;;;;;;;15.33;9.00;;;;;;;;;;4403572;32;20712;-63
2021/04/24 00:20:20;;;;;;;17.37;9.27;;;;;;;;;;4403748;32;20351;-62
2021/04/24 00:22:45;;;;;;;11.73;8.77;;;;;;;;;;4403450;32;20198;-63
2021/04/24 00:25:12;;;;;;;15.13;8.73;;;;;;;;;;4403457;32;20272;-63
2021/04/24 00:27:38;;;;;;;16.00;9.17;;;;;;;;;;4403347;32;20231;-63
2021/04/24 00:30:09;;;;;;;19.63;10.47;;;;;;;;;;4403329;32;20281;-63
2021/04/24 00:32:36;;;;;;;19.47;9.80;;;;;;;;;;4403028;32;20300;-62
2021/04/24 00:35:02;;;;;;;11.93;8.43;;;;;;;;;;4403412;32;20210;-63
2021/04/24 00:37:28;;;;;;;11.97;8.30;;;;;;;;;;4389082;32;20221;-63
2021/04/24 00:39:53;;;;;;;14.90;8.67;;;;;;;;;;4402973;32;20280;-63
2021/04/24 00:42:18;;;;;;;22.33;13.43;;;;;;;;;;4402865;32;20338;-63
2021/04/24 00:44:51;;;;;;;17.33;11.93;;;;;;;;;;4389530;32;20732;-63
2021/04/24 00:47:19;;;;;;;19.67;14.20;;;;;;;;;;4402988;32;20204;-62
2021/04/24 00:49:44;;;;;;;22.27;14.47;;;;;;;;;;4402674;32;20255;-62
2021/04/24 00:52:10;;;;;;;27.10;17.97;;;;;;;;;;4402498;32;20245;-63
2021/04/24 00:54:35;;;;;;;36.90;29.90;;;;;;;;;;4402668;32;20276;-63
2021/04/24 00:57:02;;;;;;;31.13;18.87;;;;;;;;;;4403258;32;20245;-63
2021/04/24 00:59:28;;;;;;;18.43;13.63;;;;;;;;;;4403027;32;20637;-63
2021/04/24 01:01:53;;;;;;;21.03;12.37;;;;;;;;;;4403080;32;20229;-63
2021/04/24 01:04:19;;;;;;;22.67;13.97;;;;;;;;;;4402887;32;20776;-62
2021/04/24 01:06:45;;;;;;;20.00;15.47;;;;;;;;;;4402651;32;20221;-62
2021/04/24 01:09:11;;;;;;;18.07;12.83;;;;;;;;;;4402990;32;20610;-62
2021/04/24 01:11:36;;;;;;;24.83;12.00;;;;;;;;;;4402971;32;20213;-63
2021/04/24 01:14:02;;;;;;;20.70;11.27;;;;;;;;;;4402682;32;20288;-63
2021/04/24 01:16:28;;;;;;;22.60;10.17;;;;;;;;;;4402644;32;20271;-63
2021/04/24 01:18:53;;;;;;;16.43;8.80;;;;;;;;;;4402893;32;20619;-63
2021/04/24 01:21:22;;;;;;;20.37;10.73;;;;;;;;;;4388800;32;20304;-62
2021/04/24 01:23:48;;;;;;;17.83;8.93;;;;;;;;;;4388970;32;20263;-62
2021/04/24 01:26:14;;;;;;;16.87;9.60;;;;;;;;;;4388991;32;20542;-62
2021/04/24 01:28:40;;;;;;;17.00;10.30;;;;;;;;;;4403284;32;20288;-62
2021/04/24 01:31:05;;;;;;;17.60;10.07;;;;;;;;;;4402792;32;20221;-63
2021/04/24 01:33:31;;;;;;;13.57;8.80;;;;;;;;;;4402751;32;20297;-62
2021/04/24 01:35:56;;;;;;;21.83;9.97;;;;;;;;;;4403295;32;20311;-63
2021/04/24 01:38:21;;;;;;;14.70;8.90;;;;;;;;;;4403404;32;20284;-63
2021/04/24 01:40:47;;;;;;;18.83;8.20;;;;;;;;;;4403351;32;20233;-63
2021/04/24 01:43:13;;;;;;;14.33;7.37;;;;;;;;;;4402888;32;20322;-63
2021/04/24 01:45:38;;;;;;;14.30;7.23;;;;;;;;;;4402692;32;20213;-63
2021/04/24 01:48:06;;;;;;;13.70;8.33;;;;;;;;;;4388390;32;20663;-63
2021/04/24 01:50:37;;;;;;;17.67;9.17;;;;;;;;;;4405003;32;20340;-62
2021/04/24 01:53:06;;;;;;;18.70;9.20;;;;;;;;;;4404949;32;20371;-63
2021/04/24 01:55:34;;;;;;;21.17;10.40;;;;;;;;;;4405240;32;20772;-62
2021/04/24 01:58:00;;;;;;;20.57;10.70;;;;;;;;;;4391404;32;20308;-62
2021/04/24 02:00:28;;;;;;;19.17;10.27;;;;;;;;;;4405209;32;20201;-63
2021/04/24 02:02:55;;;;;;;25.67;12.73;;;;;;;;;;4404889;32;20239;-62
2021/04/24 02:05:21;;;;;;;26.20;14.40;;;;;;;;;;4405443;32;20223;-62
2021/04/24 02:07:58;;;;;;;28.70;13.20;;;;;;;;;;4405301;32;20221;-62
2021/04/24 02:10:26;;;;;;;24.53;11.87;;;;;;;;;;4405003;32;20472;-62
2021/04/24 02:12:52;;;;;;;16.77;9.37;;;;;;;;;;4405004;32;20217;-63
2021/04/24 02:15:19;;;;;;;21.63;9.97;;;;;;;;;;4405016;32;20352;-62
2021/04/24 02:17:44;;;;;;;18.20;8.73;;;;;;;;;;4401875;32;20367;-63
2021/04/24 02:20:11;;;;;;;12.23;8.53;;;;;;;;;;4401235;32;20268;-61
2021/04/24 02:22:36;;;;;;;22.80;9.33;;;;;;;;;;4404765;32;20279;-63
2021/04/24 02:25:04;;;;;;;16.20;9.17;;;;;;;;;;4404622;32;20359;-63
2021/04/24 02:27:31;;;;;;;17.90;10.90;;;;;;;;;;4404553;32;20329;-63
2021/04/24 02:29:56;;;;;;;22.03;13.80;;;;;;;;;;4404721;32;20341;-63
2021/04/24 02:32:31;;;;;;;16.83;10.27;;;;;;;;;;4404613;32;20229;-62
2021/04/24 02:34:58;;;;;;;13.03;9.80;;;;;;;;;;4404712;32;20565;-63
2021/04/24 02:37:24;;;;;;;16.03;9.07;;;;;;;;;;4404358;32;20322;-62
2021/04/24 02:39:51;;;;;;;23.43;8.93;;;;;;;;;;4404867;32;20288;-62
2021/04/24 02:42:20;;;;;;;20.17;9.83;;;;;;;;;;4404516;32;20641;-62
2021/04/24 02:44:46;;;;;;;18.53;8.40;;;;;;;;;;4404335;32;20597;-63
2021/04/24 02:47:12;;;;;;;21.60;8.53;;;;;;;;;;4404145;32;20238;-63
2021/04/24 02:49:37;;;;;;;14.80;9.00;;;;;;;;;;4404136;32;20308;-62
2021/04/24 02:52:04;;;;;;;18.33;8.63;;;;;;;;;;4403690;32;20217;-63
2021/04/24 02:54:30;;;;;;;27.87;15.63;;;;;;;;;;4390433;32;20665;-62
2021/04/24 02:56:56;;;;;;;32.63;22.17;;;;;;;;;;4404191;32;20248;-63
2021/04/24 02:59:21;;;;;;;29.33;22.57;;;;;;;;;;4404295;32;20273;-61
2021/04/24 03:01:48;;;;;;;27.03;21.10;;;;;;;;;;4404048;32;20209;-63
2021/04/24 03:04:14;;;;;;;26.20;21.07;;;;;;;;;;4404331;32;20262;-62
2021/04/24 03:06:41;;;;;;;26.97;15.17;;;;;;;;;;4404379;32;20315;-63
2021/04/24 03:09:07;;;;;;;17.43;12.20;;;;;;;;;;4390285;32;20431;-63
2021/04/24 03:11:33;;;;;;;19.43;12.70;;;;;;;;;;4404599;32;20213;-63
2021/04/24 03:13:58;;;;;;;29.73;11.60;;;;;;;;;;4404441;32;20709;-62
2021/04/24 03:16:24;;;;;;;16.63;9.97;;;;;;;;;;4404003;32;20282;-63
2021/04/24 03:18:53;;;;;;;24.33;10.20;;;;;;;;;;4394052;32;20678;-63
2021/04/24 03:21:19;;;;;;;14.10;10.00;;;;;;;;;;4402965;32;20217;-63
2021/04/24 03:23:44;;;;;;;24.43;11.50;;;;;;;;;;4403814;32;20287;-63
2021/04/24 03:26:10;;;;;;;25.33;13.13;;;;;;;;;;4403839;32;20252;-62
2021/04/24 03:28:35;;;;;;;25.43;14.80;;;;;;;;;;4403864;32;20359;-62
2021/04/24 03:31:01;;;;;;;20.03;11.23;;;;;;;;;;4403884;32;20263;-63
2021/04/24 03:33:26;;;;;;;21.27;13.43;;;;;;;;;;4404226;32;20307;-63
2021/04/24 03:35:51;;;;;;;25.20;13.43;;;;;;;;;;4404307;32;20644;-63
2021/04/24 03:38:17;;;;;;;23.80;12.00;;;;;;;;;;4404002;32;20272;-63
2021/04/24 03:40:42;;;;;;;19.63;10.93;;;;;;;;;;4403620;32;20262;-62
2021/04/24 03:43:08;;;;;;;27.87;13.10;;;;;;;;;;4403792;32;20292;-62
2021/04/24 03:45:35;;;;;;;31.10;18.87;;;;;;;;;;4403783;32;20675;-63
2021/04/24 03:48:01;;;;;;;36.57;19.90;;;;;;;;;;4403656;32;20686;-61
2021/04/24 03:50:27;;;;;;;29.37;17.27;;;;;;;;;;4403830;32;20349;-63
2021/04/24 03:52:55;;;;;;;27.73;15.30;;;;;;;;;;4403341;32;20241;-63
2021/04/24 03:55:22;;;;;;;24.20;13.07;;;;;;;;;;4403655;32;20198;-63
2021/04/24 03:57:49;;;;;;;27.57;13.73;;;;;;;;;;4403467;32;20634;-62
2021/04/24 04:00:16;;;;;;;29.70;16.63;;;;;;;;;;4403241;32;20197;-63
2021/04/24 04:02:50;;;;;;;37.03;23.00;;;;;;;;;;4403035;32;20285;-63
2021/04/24 04:05:17;;;;;;;52.23;28.47;;;;;;;;;;4389170;32;20589;-62
2021/04/24 04:07:43;;;;;;;37.23;20.97;;;;;;;;;;4389102;32;20508;-63
2021/04/24 04:10:11;;;;;;;28.90;21.60;;;;;;;;;;4389434;32;20350;-63
2021/04/24 04:12:36;;;;;;;24.90;18.70;;;;;;;;;;4402864;32;20687;-63
2021/04/24 04:15:04;;;;;;;27.80;17.17;;;;;;;;;;4402900;32;20292;-62
2021/04/24 04:17:30;;;;;;;20.17;15.13;;;;;;;;;;4402920;32;20297;-62
2021/04/24 04:19:56;;;;;;;21.73;11.97;;;;;;;;;;4403025;32;20575;-61
2021/04/24 04:22:22;;;;;;;18.53;11.73;;;;;;;;;;4402911;32;20269;-62
2021/04/24 04:24:47;;;;;;;26.37;12.07;;;;;;;;;;4402972;32;20292;-63
2021/04/24 04:27:13;;;;;;;18.00;11.07;;;;;;;;;;4402740;32;20249;-63
2021/04/24 04:29:38;;;;;;;17.37;10.20;;;;;;;;;;4403155;32;20292;-64
2021/04/24 04:32:04;;;;;;;20.40;9.47;;;;;;;;;;4389236;32;20259;-64
2021/04/24 04:34:30;;;;;;;27.53;9.23;;;;;;;;;;4402782;32;20729;-62
2021/04/24 04:36:55;;;;;;;16.47;8.10;;;;;;;;;;4401569;32;20225;-63
2021/04/24 04:39:21;;;;;;;14.80;8.47;;;;;;;;;;4402375;32;20682;-62
2021/04/24 04:41:46;;;;;;;11.97;8.13;;;;;;;;;;4402805;32;20221;-62
2021/04/24 04:44:12;;;;;;;17.20;9.80;;;;;;;;;;4402842;32;20268;-62
2021/04/24 04:46:37;;;;;;;20.13;9.83;;;;;;;;;;4403236;32;20321;-63
2021/04/24 04:49:03;;;;;;;18.67;10.47;;;;;;;;;;4403363;32;20734;-63
2021/04/24 04:51:28;;;;;;;20.47;10.60;;;;;;;;;;4403803;32;20673;-63
2021/04/24 04:53:54;;;;;;;17.03;10.17;;;;;;;;;;4418652;32;20198;-63
2021/04/24 04:56:19;;;;;;;18.83;10.47;;;;;;;;;;4418209;32;20360;-63
2021/04/24 04:58:45;;;;;;;13.27;9.20;;;;;;;;;;4405217;32;20401;-53
2021/04/24 05:01:10;;;;;;;22.40;9.77;;;;;;;;;;4417730;32;20224;-53
2021/04/24 05:03:36;;;;;;;15.70;9.00;;;;;;;;;;4418145;32;20300;-53
2021/04/24 05:06:01;;;;;;;20.70;9.40;;;;;;;;;;4418217;32;20261;-53
2021/04/24 05:08:27;;;;;;;21.00;9.87;;;;;;;;;;4418221;32;20280;-54
2021/04/24 05:10:53;;;;;;;18.97;12.80;;;;;;;;;;4418467;32;20319;-53
2021/04/24 05:13:18;;;;;;;25.97;12.70;;;;;;;;;;4418621;32;20343;-54
2021/04/24 05:15:44;;;;;;;23.23;13.27;;;;;;;;;;4418230;32;20346;-54
2021/04/24 05:18:10;;;;;;;28.50;14.17;;;;;;;;;;4412259;32;20933;-54
2021/04/24 05:20:36;;;;;;;33.87;17.13;;;;;;;;;;4401761;32;20277;-53
2021/04/24 05:23:02;;;;;;;36.60;17.60;;;;;;;;;;4373741;32;20357;-53
2021/04/24 05:25:27;;;;;;;25.03;15.27;;;;;;;;;;4390256;32;20265;-53
2021/04/24 05:27:53;;;;;;;30.67;16.37;;;;;;;;;;4399444;32;20316;-53
2021/04/24 05:30:19;;;;;;;30.40;16.10;;;;;;;;;;4405442;32;20462;-54
2021/04/24 05:32:45;;;;;;;33.63;15.87;;;;;;;;;;4405787;32;20205;-52
2021/04/24 05:35:13;;;;;;;28.83;17.93;;;;;;;;;;4406088;32;20659;-54
2021/04/24 05:37:39;;;;;;;24.53;15.03;;;;;;;;;;4406157;32;20312;-53
2021/04/24 05:40:06;;;;;;;24.03;14.93;;;;;;;;;;4391882;32;20634;-55
2021/04/24 05:42:32;;;;;;;33.10;16.27;;;;;;;;;;4405599;32;20597;-53
2021/04/24 05:44:58;;;;;;;24.30;14.57;;;;;;;;;;4404901;32;20241;-53
2021/04/24 05:47:23;;;;;;;49.93;25.17;;;;;;;;;;4392142;32;20690;-53
2021/04/24 05:49:49;;;;;;;30.37;17.10;;;;;;;;;;4404454;32;20292;-52
2021/04/24 05:52:14;;;;;;;21.77;13.47;;;;;;;;;;4405533;32;20272;-53
2021/04/24 05:54:40;;;;;;;23.87;12.87;;;;;;;;;;4392010;32;20304;-53
2021/04/24 05:57:05;;;;;;;50.10;26.90;;;;;;;;;;4405557;32;20577;-53
2021/04/24 05:59:31;;;;;;;39.33;22.03;;;;;;;;;;4405767;32;20685;-53
2021/04/24 06:01:56;;;;;;;28.83;15.70;;;;;;;;;;4391836;32;20756;-53
2021/04/24 06:04:24;;;;;;;26.87;13.83;;;;;;;;;;4391558;32;20373;-55
2021/04/24 06:06:49;;;;;;;18.47;10.20;;;;;;;;;;4405020;32;20336;-54
2021/04/24 06:09:15;;;;;;;13.93;8.67;;;;;;;;;;4405915;32;20330;-53
2021/04/24 06:11:40;;;;;;;20.77;8.87;;;;;;;;;;4405489;32;20286;-54
2021/04/24 06:14:06;;;;;;;15.27;8.83;;;;;;;;;;4405639;32;20312;-54
2021/04/24 06:16:31;;;;;;;14.90;7.83;;;;;;;;;;4405263;32;20684;-53
2021/04/24 06:18:58;;;;;;;13.97;8.03;;;;;;;;;;4405263;32;20368;-53
2021/04/24 06:21:23;;;;;;;12.70;7.20;;;;;;;;;;4405115;32;20259;-54
2021/04/24 06:23:49;;;;;;;13.00;7.97;;;;;;;;;;4405512;32;20335;-55
2021/04/24 06:26:14;;;;;;;13.43;6.93;;;;;;;;;;4404973;32;20341;-52
2021/04/24 06:28:40;;;;;;;19.40;7.80;;;;;;;;;;4405186;32;20685;-53
2021/04/24 06:31:05;;;;;;;15.83;7.87;;;;;;;;;;4404862;32;20248;-53
2021/04/24 06:33:31;;;;;;;14.20;8.03;;;;;;;;;;4405233;32;20292;-55
2021/04/24 06:35:57;;;;;;;11.53;7.77;;;;;;;;;;4404939;32;20356;-53
2021/04/24 06:38:23;;;;;;;17.17;7.43;;;;;;;;;;4404872;32;20247;-53
2021/04/24 06:40:48;;;;;;;13.10;7.27;;;;;;;;;;4405109;32;20280;-61
2021/04/24 06:43:14;;;;;;;16.57;7.53;;;;;;;;;;4405097;32;20295;-61
2021/04/24 06:45:39;;;;;;;13.97;7.83;;;;;;;;;;4404948;32;20278;-62
2021/04/24 06:48:06;;;;;;;15.10;7.13;;;;;;;;;;4404832;32;20289;-61
2021/04/24 06:50:31;;;;;;;16.80;8.97;;;;;;;;;;4404657;32;20723;-61
2021/04/24 06:52:57;;;;;;;23.30;12.47;;;;;;;;;;4404113;32;20222;-62
2021/04/24 06:55:23;;;;;;;18.77;10.03;;;;;;;;;;4404777;32;20597;-61
2021/04/24 06:57:49;;;;;;;11.87;8.13;;;;;;;;;;4404402;32;20214;-61
2021/04/24 07:00:16;;;;;;;15.27;7.87;;;;;;;;;;4403496;32;20285;-61
2021/04/24 07:02:43;;;;;;;9.93;6.53;;;;;;;;;;4404491;32;20225;-61
2021/04/24 07:05:11;;;;;;;19.83;7.20;;;;;;;;;;4404452;32;20654;-62
2021/04/24 07:07:37;;;;;;;14.43;7.80;;;;;;;;;;4404542;32;20526;-62
2021/04/24 07:10:08;;;;;;;15.73;8.00;;;;;;;;;;4404660;32;20288;-62
2021/04/24 07:12:34;;;;;;;22.20;11.17;;;;;;;;;;4404019;32;20298;-62
2021/04/24 07:14:59;;;;;;;18.70;9.53;;;;;;;;;;4404620;32;20304;-62
2021/04/24 07:17:25;;;;;;;17.33;9.70;;;;;;;;;;4403083;32;20205;-61
2021/04/24 07:19:51;;;;;;;16.47;7.10;;;;;;;;;;4388739;32;20293;-61
2021/04/24 07:22:17;;;;;;;23.37;7.30;;;;;;;;;;4398150;32;20217;-61
2021/04/24 07:24:45;;;;;;;15.97;6.83;;;;;;;;;;4404155;32;20268;-61
2021/04/24 07:27:12;;;;;;;14.47;8.03;;;;;;;;;;4404007;32;20296;-61
2021/04/24 07:29:38;;;;;;;15.33;7.70;;;;;;;;;;4403778;32;20260;-60
2021/04/24 07:32:04;;;;;;;13.13;8.17;;;;;;;;;;4404048;32;20559;-54
2021/04/24 07:34:29;;;;;;;15.93;8.50;;;;;;;;;;4403882;32;20335;-53
2021/04/24 07:36:54;;;;;;;15.27;6.63;;;;;;;;;;4404067;32;20626;-53
2021/04/24 07:39:20;;;;;;;13.63;6.90;;;;;;;;;;4404107;32;20288;-54
2021/04/24 07:41:45;;;;;;;16.33;7.57;;;;;;;;;;4404034;32;20252;-54
2021/04/24 07:44:11;;;;;;;18.07;8.30;;;;;;;;;;4404052;32;20291;-53
2021/04/24 07:46:38;;;;;;;12.47;6.67;;;;;;;;;;4403254;32;20225;-53
2021/04/24 07:49:03;;;;;;;21.77;9.47;;;;;;;;;;4402739;32;20266;-53
2021/04/24 07:51:29;;;;;;;18.33;9.10;;;;;;;;;;4403449;32;20296;-53
2021/04/24 07:53:54;;;;;;;20.13;9.53;;;;;;;;;;4404029;32;20189;-53
2021/04/24 07:56:20;;;;;;;17.27;10.97;;;;;;;;;;4390015;32;20843;-53
2021/04/24 07:58:45;;;;;;;12.80;7.67;;;;;;;;;;4401968;32;20395;-53
2021/04/24 08:01:11;;;;;;;14.40;8.53;;;;;;;;;;4403543;32;20621;-54
2021/04/24 08:03:36;;;;;;;31.67;13.07;;;;;;;;;;4391264;32;20577;-53
2021/04/24 08:06:02;;;;;;;26.07;14.17;;;;;;;;;;4411307;32;20314;-53
2021/04/24 08:08:27;;;;;;;18.43;10.67;;;;;;;;;;4409791;32;20265;-54
2021/04/24 08:10:53;;;;;;;21.30;7.30;;;;;;;;;;4406480;32;20217;-53
2021/04/24 08:13:18;;;;;;;10.60;5.80;;;;;;;;;;4414632;32;20367;-54
2021/04/24 08:15:44;;;;;;;13.03;6.50;;;;;;;;;;4404633;32;20590;-52
2021/04/24 08:18:09;;;;;;;19.73;8.97;;;;;;;;;;4401596;32;20280;-55
2021/04/24 08:20:35;;;;;;;20.87;9.93;;;;;;;;;;4388211;32;20560;-53
2021/04/24 08:23:00;;;;;;;13.77;7.83;;;;;;;;;;4391792;32;20427;-52
2021/04/24 08:25:26;;;;;;;19.00;7.53;;;;;;;;;;4401927;32;20307;-53
2021/04/24 08:27:53;;;;;;;56.23;30.87;;;;;;;;;;4418330;32;20260;-53
2021/04/24 08:30:19;;;;;;;34.37;19.90;;;;;;;;;;4418600;32;20763;-53
2021/04/24 08:32:47;;;;;;;200.53;122.27;;;;;;;;;;4418743;32;20266;-53
2021/04/24 08:35:13;;;;;;;73.83;52.73;;;;;;;;;;4418283;32;20205;-54
2021/04/24 08:37:39;;;;;;;20.90;12.93;;;;;;;;;;4419136;32;20638;-54
2021/04/24 08:40:07;;;;;;;22.97;11.50;;;;;;;;;;4418493;32;20586;-55
2021/04/24 08:42:33;;;;;;;21.50;9.90;;;;;;;;;;4418500;32;20754;-53
2021/04/24 08:44:59;;;;;;;171.40;151.07;;;;;;;;;;4418565;32;20288;-54
2021/04/24 08:47:28;;;;;;;22.57;15.67;;;;;;;;;;4418896;32;20687;-52
2021/04/24 08:49:54;;;;;;;17.27;9.50;;;;;;;;;;4414019;32;20259;-53
2021/04/24 08:52:21;;;;;;;16.27;8.83;;;;;;;;;;4403621;32;20324;-53
2021/04/24 08:54:48;;;;;;;13.33;7.87;;;;;;;;;;4403625;32;20193;-54
2021/04/24 08:57:13;;;;;;;16.27;8.20;;;;;;;;;;4403423;32;20255;-53
2021/04/24 08:59:39;;;;;;;23.37;9.27;;;;;;;;;;4379895;32;20316;-54
2021/04/24 09:02:06;;;;;;;20.53;7.77;;;;;;;;;;4406404;32;20213;-54
2021/04/24 09:04:32;;;;;;;15.80;7.80;;;;;;;;;;4407002;32;20284;-54
2021/04/24 09:06:57;;;;;;;34.37;12.93;;;;;;;;;;4406437;32;20248;-54
2021/04/24 09:09:28;;;;;;;300.37;136.40;;;;;;;;;;4406609;32;20280;-55
2021/04/24 09:12:01;;;;;;;19.07;12.47;;;;;;;;;;4406167;32;20311;-53
2021/04/24 09:14:29;;;;;;;19.77;8.53;;;;;;;;;;4406449;32;20216;-54
2021/04/24 09:16:55;;;;;;;19.03;8.80;;;;;;;;;;4406350;32;20233;-53
2021/04/24 09:19:31;;;;;;;19.13;9.00;;;;;;;;;;4406432;32;20350;-54
2021/04/24 09:22:16;;;;;;;26.13;10.80;;;;;;;;;;4406265;32;20240;-54
2021/04/24 09:24:45;;;;;;;41.97;24.60;;;;;;;;;;4406233;32;20670;-54
2021/04/24 09:27:10;;;;;;;87.37;49.73;;;;;;;;;;4405843;32;20633;-53
2021/04/24 09:29:36;;;;;;;84.93;52.13;;;;;;;;;;4392047;32;20357;-54
2021/04/24 09:32:17;;;;;;;113.50;53.23;;;;;;;;;;4406065;32;20217;-53
2021/04/24 09:34:46;;;;;;;315.17;181.53;;;;;;;;;;4406095;32;20441;-63
2021/04/24 09:37:23;;;;;;;119.23;69.73;;;;;;;;;;4405969;32;20247;-63
2021/04/24 09:39:51;;;;;;;33.43;14.50;;;;;;;;;;4406245;32;20281;-62
2021/04/24 09:42:36;;;;;;;81.27;47.87;;;;;;;;;;4405882;32;20275;-64
2021/04/24 09:45:26;;;;;;;428.87;271.73;;;;;;;;;;4405992;32;20248;-63
2021/04/24 09:47:51;;;;;;;139.77;71.40;;;;;;;;;;4385943;32;20600;-63
2021/04/24 09:50:20;;;;;;;78.23;37.47;;;;;;;;;;4404337;32;20284;-63
2021/04/24 09:52:45;;;;;;;84.67;44.07;;;;;;;;;;4405467;32;20324;-63
2021/04/24 09:55:16;;;;;;;31.93;14.60;;;;;;;;;;4406007;32;20284;-62
2021/04/24 09:57:42;;;;;;;163.27;62.60;;;;;;;;;;4409033;32;20371;-63
2021/04/24 10:00:13;;;;;;;273.57;100.40;;;;;;;;;;4403808;32;20665;-62
2021/04/24 10:02:41;;;;;;;83.63;34.37;;;;;;;;;;4388929;32;20254;-63
2021/04/24 10:05:18;;;;;;;42.33;19.20;;;;;;;;;;4388770;32;20236;-63
2021/04/24 10:07:59;;;;;;;117.00;43.53;;;;;;;;;;4375031;32;20300;-62
2021/04/24 10:10:30;;;;;;;64.40;27.97;;;;;;;;;;4373989;32;20594;-61
2021/04/24 10:12:57;;;;;;;175.17;59.30;;;;;;;;;;4388454;32;20261;-61
2021/04/24 10:15:39;;;;;;;566.47;222.57;;;;;;;;;;4390200;32;20278;-61
2021/04/24 10:18:07;;;;;;;477.83;170.37;;;;;;;;;;4389888;32;20619;-62
2021/04/24 10:20:33;;;;;;;255.97;93.70;;;;;;;;;;4397111;32;20306;-62
2021/04/24 10:23:01;;;;;;;239.67;87.43;;;;;;;;;;4391163;32;20273;-54
2021/04/24 10:25:28;;;;;;;107.03;43.73;;;;;;;;;;4405075;32;20205;-54
2021/04/24 10:27:55;;;;;;;1009.93;458.63;;;;;;;;;;4405135;32;20186;-54
2021/04/24 10:30:21;;;;;;;562.70;267.93;;;;;;;;;;4404821;32;20205;-54
2021/04/24 10:32:46;;;;;;;697.60;370.87;;;;;;;;;;4404879;32;20359;-53
2021/04/24 10:35:14;;;;;;;152.20;75.07;;;;;;;;;;4404756;32;20335;-54
2021/04/24 10:37:41;;;;;;;40.40;25.00;;;;;;;;;;4391202;32;20312;-53
2021/04/24 10:40:07;;;;;;;43.63;19.57;;;;;;;;;;4404225;32;20235;-54
2021/04/24 10:42:33;;;;;;;20.30;11.60;;;;;;;;;;4404889;32;20247;-54
2021/04/24 10:45:06;;;;;;;55.17;32.43;;;;;;;;;;4404837;32;20580;-54
2021/04/24 10:47:37;;;;;;;123.37;75.47;;;;;;;;;;4404870;32;20328;-54
2021/04/24 10:50:05;;;;;;;37.57;25.47;;;;;;;;;;4405045;32;20300;-54
2021/04/24 10:52:30;;;;;;;22.07;14.10;;;;;;;;;;4404961;32;20271;-54
2021/04/24 10:55:25;;;;;;;14.20;9.23;;;;;;;;;;4390039;32;20549;-53
2021/04/24 10:57:54;;;;;;;17.57;9.23;;;;;;;;;;4390068;32;20190;-54
2021/04/24 11:00:33;;;;;;;18.43;8.40;;;;;;;;;;4381582;32;20692;-52
2021/04/24 11:03:00;;;;;;;21.20;6.27;;;;;;;;;;4390808;32;20233;-52
2021/04/24 11:05:35;;;;;;;11.57;4.90;;;;;;;;;;4404710;32;20193;-56
2021/04/24 11:08:10;;;;;;;17.60;7.03;;;;;;;;;;4405079;32;20653;-56
2021/04/24 11:10:58;;;;;;;15.73;8.17;;;;;;;;;;4404656;32;20259;-53
2021/04/24 11:13:25;;;;;;;10.43;5.27;;;;;;;;;;4397825;32;20266;-54
2021/04/24 11:15:53;;;;;;;13.60;5.50;;;;;;;;;;4381978;32;20638;-53
2021/04/24 11:18:19;;;;;;;10.83;5.10;;;;;;;;;;4395147;32;20255;-52
2021/04/24 11:20:48;;;;;;;12.27;5.53;;;;;;;;;;4399432;32;20222;-53
2021/04/24 11:23:32;;;;;;;18.00;6.30;;;;;;;;;;4397519;32;20411;-55
2021/04/24 11:25:58;;;;;;;10.20;5.53;;;;;;;;;;4393140;32;20735;-62
2021/04/24 11:28:24;;;;;;;9.90;5.37;;;;;;;;;;4396330;32;20294;-62
2021/04/24 11:30:58;;;;;;;13.03;5.20;;;;;;;;;;4393118;32;21689;-62
2021/04/24 11:33:47;;;;;;;13.23;5.80;;;;;;;;;;4395424;32;20206;-62
2021/04/24 11:38:56;;;;;;;11.47;5.60;;;;;;;;;;4394907;32;20321;-61
2021/04/24 11:41:48;;;;;;;14.10;5.63;;;;;;;;;;4399924;32;20221;-61
2021/04/24 11:44:16;;;;;;;8.63;5.90;;;;;;;;;;4397352;32;20226;-61
2021/04/24 11:46:46;;;;;;;14.07;5.77;;;;;;;;;;4387390;32;20249;-62
2021/04/24 11:49:12;;;;;;;14.83;6.13;;;;;;;;;;4402138;32;20214;-62
2021/04/24 11:51:54;;;;;;;17.13;5.77;;;;;;;;;;4401875;32;20324;-62
2021/04/24 11:54:37;;;;;;;13.00;5.87;;;;;;;;;;4402497;32;20341;-61
2021/04/24 11:57:11;;;;;;;12.30;5.77;;;;;;;;;;4402549;32;20282;-61
2021/04/24 11:59:39;;;;;;;21.47;9.13;;;;;;;;;;4402258;32;20278;-62
2021/04/24 12:02:20;;;;;;;17.07;9.37;;;;;;;;;;4402558;32;20291;-62
2021/04/24 12:04:49;;;;;;;18.03;10.10;;;;;;;;;;4403386;32;20276;-61
2021/04/24 12:07:17;;;;;;;13.93;6.47;;;;;;;;;;4402919;32;20213;-62
2021/04/24 12:09:55;;;;;;;12.47;6.87;;;;;;;;;;4401862;32;20225;-62
2021/04/24 12:12:30;;;;;;;14.10;7.37;;;;;;;;;;4401742;32;20334;-64
2021/04/24 12:15:02;;;;;;;12.30;7.40;;;;;;;;;;4402862;32;20314;-62
2021/04/24 12:17:27;;;;;;;13.20;6.47;;;;;;;;;;4403174;32;20381;-62
2021/04/24 12:19:53;;;;;;;10.90;6.73;;;;;;;;;;4389632;32;20269;-62
2021/04/24 12:22:21;;;;;;;9.80;5.87;;;;;;;;;;4402856;32;20237;-62
2021/04/24 12:25:02;;;;;;;10.90;6.17;;;;;;;;;;4402764;32;20611;-62
2021/04/24 12:27:38;;;;;;;8.70;5.70;;;;;;;;;;4403088;32;20293;-62
2021/04/24 12:30:12;;;;;;;46.50;8.77;;;;;;;;;;4403465;32;20223;-62
2021/04/24 12:32:43;;;;;;;10.80;6.50;;;;;;;;;;4403554;32;20232;-62
2021/04/24 12:35:16;;;;;;;12.73;6.33;;;;;;;;;;4403792;32;20212;-62
2021/04/24 12:37:43;;;;;;;11.87;6.70;;;;;;;;;;4403393;32;20225;-60
2021/04/24 12:40:13;;;;;;;10.47;5.97;;;;;;;;;;4389449;32;20426;-60
2021/04/24 12:42:39;;;;;;;13.60;5.97;;;;;;;;;;4403201;32;20501;-61
2021/04/24 12:45:08;;;;;;;13.43;6.83;;;;;;;;;;4402978;32;20277;-60
2021/04/24 12:47:36;;;;;;;7.43;5.43;;;;;;;;;;4402700;32;20229;-60
2021/04/24 12:50:10;;;;;;;9.13;5.40;;;;;;;;;;4401252;32;20323;-61
2021/04/24 12:52:43;;;;;;;9.07;5.83;;;;;;;;;;4388679;32;20350;-61
2021/04/24 12:55:09;;;;;;;13.67;7.03;;;;;;;;;;4402888;32;20236;-60
2021/04/24 12:57:36;;;;;;;19.27;8.50;;;;;;;;;;4402453;32;20709;-61
2021/04/24 13:00:10;;;;;;;13.70;6.43;;;;;;;;;;4402777;32;20275;-59
2021/04/24 13:02:37;;;;;;;13.50;6.00;;;;;;;;;;4402591;32;20240;-62
2021/04/24 13:05:08;;;;;;;19.03;8.03;;;;;;;;;;4403023;32;20259;-60
2021/04/24 13:07:34;;;;;;;15.23;5.90;;;;;;;;;;4402450;32;20268;-54
2021/04/24 13:09:59;;;;;;;8.37;5.03;;;;;;;;;;4402723;32;20296;-53
2021/04/24 13:12:25;;;;;;;11.33;5.03;;;;;;;;;;4402445;32;20221;-52
2021/04/24 13:14:52;;;;;;;8.67;4.73;;;;;;;;;;4402849;32;20639;-53
2021/04/24 13:17:23;;;;;;;15.20;5.33;;;;;;;;;;4402535;32;20218;-53
2021/04/24 13:19:58;;;;;;;11.73;4.87;;;;;;;;;;4402922;32;20186;-54
2021/04/24 13:22:45;;;;;;;11.43;6.03;;;;;;;;;;4402598;32;20480;-53
2021/04/24 13:25:13;;;;;;;7.97;4.77;;;;;;;;;;4402452;32;20228;-54
2021/04/24 13:27:39;;;;;;;9.13;4.47;;;;;;;;;;4402822;32;20705;-53
2021/04/24 13:30:13;;;;;;;10.67;4.70;;;;;;;;;;4404031;32;20369;-60
2021/04/24 13:33:01;;;;;;;12.80;4.73;;;;;;;;;;4375373;32;20328;-54
2021/04/24 13:35:43;;;;;;;9.63;5.27;;;;;;;;;;4385280;32;20620;-54
2021/04/24 13:38:09;;;;;;;9.00;5.40;;;;;;;;;;4388786;32;20248;-54
2021/04/24 13:40:35;;;;;;;10.60;6.00;;;;;;;;;;4403261;32;20238;-53
2021/04/24 13:43:00;;;;;;;12.97;5.53;;;;;;;;;;4402496;32;20633;-53
2021/04/24 13:45:27;;;;;;;21.80;8.43;;;;;;;;;;4389598;32;20342;-53
2021/04/24 13:47:53;;;;;;;10.97;5.47;;;;;;;;;;4404637;32;20205;-54
2021/04/24 13:50:24;;;;;;;18.07;5.87;;;;;;;;;;4403192;32;20361;-54
2021/04/24 13:52:49;;;;;;;13.43;5.60;;;;;;;;;;4390633;32;20702;-53
2021/04/24 13:55:16;;;;;;;12.23;4.40;;;;;;;;;;4405337;32;20387;-53
2021/04/24 13:57:42;;;;;;;10.70;5.07;;;;;;;;;;4405379;32;20367;-54
2021/04/24 14:00:10;;;;;;;10.53;5.73;;;;;;;;;;4405906;32;20706;-53
2021/04/24 14:02:36;;;;;;;6.53;3.77;;;;;;;;;;4405100;32;20663;-53
2021/04/24 14:05:01;;;;;;;9.70;5.47;;;;;;;;;;4405437;32;20299;-54
2021/04/24 14:07:27;;;;;;;12.23;6.40;;;;;;;;;;4405287;32;20282;-53
2021/04/24 14:09:52;;;;;;;11.40;5.50;;;;;;;;;;4404563;32;20297;-54
2021/04/24 14:12:18;;;;;;;9.27;5.67;;;;;;;;;;4405521;32;20221;-54
2021/04/24 14:14:45;;;;;;;6.30;4.47;;;;;;;;;;4405265;32;20673;-54
2021/04/24 14:17:11;;;;;;;8.00;4.03;;;;;;;;;;4405234;32;20217;-54
2021/04/24 14:19:37;;;;;;;7.97;4.93;;;;;;;;;;4391902;32;20304;-55
2021/04/24 14:22:04;;;;;;;12.67;5.13;;;;;;;;;;4391317;32;20279;-54
2021/04/24 14:24:29;;;;;;;10.93;5.83;;;;;;;;;;4405578;32;20307;-52
2021/04/24 14:26:55;;;;;;;11.57;5.20;;;;;;;;;;4404901;32;20587;-53
2021/04/24 14:29:20;;;;;;;13.50;7.00;;;;;;;;;;4405120;32;20502;-53